Terminal Aerodrome Forecast
Issued by NWS Omaha/Valley, NE

Home | Current Version | Previous Version | Text Only | Print | Product List | Glossary Off
Versions: 1 2 3 4 5 6 7 8 9 10 11 12 13 14 15 16 17 18 19 20 21 22 23 24

000
FTUS43 KOAX 281915 AAA
TAFOFK
TAF AMD
KOFK 281915Z 2819/0118 19015KT P6SM SCT025 OVC060
     FM010000 18008KT P6SM OVC050
     FM010900 24006KT P6SM OVC100=

USA.gov is the U.S. government's official web portal to all federal, state and local government web resources and services.